Kinsley, Kansas
Current Conditions -  °F | °C
As of 9:52 PM on Wednesday 22 Oct 2014 (Local Time) from KDDC Reporting Station
Overcast Overcast  
Wind Chill: 61°   Ceiling: 800
Heat Index: 61°   Visibility: 9mi
Dew Point: 57°   Wind: 20mph
Humidity: 87%   Direction: 190°S
Pressure: 30.07"   Gusts: NA
Location:  37.92°N, 99.41°W
Report Text: KDDC 230252Z AUTO 19017KT 9SM OVC008 16/14 A3007 RMK AO2 LTG DSNT E SLP166 T01610139 53011
Loading
Personal Weather Stations






























Interactive Weather Map
Tropical Storm Tracking
New forecast layout! Learn more

10-Day Weather Forecast

Advertisements
Track Severe Weather on mobile